createdAt,value
2023-04-08T00:01:20.137Z,63.74
2023-04-08T00:03:47.406Z,63.21
2023-04-08T00:06:14.516Z,63.84
2023-04-08T00:08:41.906Z,64.62
2023-04-08T00:11:08.850Z,64.73
2023-04-08T00:13:36.066Z,64.26
2023-04-08T00:16:03.485Z,65.12
2023-04-08T00:18:30.554Z,65.41
2023-04-08T00:20:57.572Z,65.36
2023-04-08T00:23:24.646Z,63.85
2023-04-08T00:25:51.778Z,63.78
2023-04-08T00:28:18.820Z,65.09
2023-04-08T00:30:45.861Z,65.58
2023-04-08T00:33:13.243Z,65.28
2023-04-08T00:35:40.371Z,65.96
2023-04-08T00:38:08.205Z,64.52
2023-04-08T00:40:35.419Z,63.97
2023-04-08T00:43:02.709Z,64.27
2023-04-08T00:45:29.783Z,64.39
2023-04-08T00:48:03.836Z,64.12
2023-04-08T00:50:30.971Z,64.12
2023-04-08T00:52:57.955Z,63.93
2023-04-08T00:55:25.019Z,63.14
2023-04-08T00:57:52.165Z,62.97
2023-04-08T01:00:19.381Z,63.53
2023-04-08T01:02:57.232Z,63.84
2023-04-08T01:05:51.774Z,62.80
2023-04-08T01:08:19.082Z,63.54
2023-04-08T01:10:51.704Z,62.98
2023-04-08T01:13:22.050Z,62.96
2023-04-08T01:15:50.626Z,63.14
2023-04-08T01:18:18.765Z,63.77
2023-04-08T01:20:46.903Z,63.56
2023-04-08T01:23:23.389Z,63.72
2023-04-08T01:25:53.806Z,63.53
2023-04-08T01:28:23.865Z,64.01
2023-04-08T01:30:52.534Z,64.35
2023-04-08T01:33:20.824Z,64.63
2023-04-08T01:35:48.385Z,65.14
2023-04-08T01:38:18.409Z,65.02
2023-04-08T01:40:48.039Z,65.13
2023-04-08T01:43:17.541Z,65.26
2023-04-08T01:45:46.091Z,65.11
2023-04-08T01:48:14.560Z,64.17
2023-04-08T01:50:46.290Z,63.86
2023-04-08T01:53:14.192Z,62.48
2023-04-08T01:55:42.627Z,62.98
2023-04-08T01:58:17.360Z,63.73
2023-04-08T02:00:44.948Z,65.93
2023-04-08T02:03:18.027Z,66.48
2023-04-08T02:05:46.649Z,64.67
2023-04-08T02:08:13.719Z,64.52
2023-04-08T02:10:41.080Z,65.15
2023-04-08T02:13:08.620Z,66.08
2023-04-08T02:15:40.852Z,66.00
2023-04-08T02:18:17.669Z,65.68
2023-04-08T02:20:51.870Z,65.26
2023-04-08T02:23:25.082Z,65.76
2023-04-08T02:25:57.014Z,64.61
2023-04-08T02:28:29.196Z,65.55
2023-04-08T02:30:58.314Z,66.01
2023-04-08T02:33:26.328Z,66.22
2023-04-08T02:35:55.126Z,66.39
2023-04-08T02:38:24.376Z,66.36
2023-04-08T02:40:51.748Z,66.60
2023-04-08T02:43:18.927Z,67.83
2023-04-08T02:45:46.195Z,67.93
2023-04-08T02:48:13.244Z,68.22
2023-04-08T02:50:41.063Z,67.63
2023-04-08T02:53:09.703Z,66.82
2023-04-08T02:55:38.133Z,67.42
2023-04-08T02:58:05.170Z,67.58
2023-04-08T03:00:32.462Z,68.05
2023-04-08T03:02:59.733Z,68.21
2023-04-08T03:05:27.657Z,68.00
2023-04-08T03:07:54.785Z,69.21
2023-04-08T03:10:21.692Z,69.31
2023-04-08T03:12:48.741Z,69.52
2023-04-08T03:15:16.138Z,68.63
2023-04-08T03:17:43.373Z,68.46
2023-04-08T03:20:10.971Z,68.77
2023-04-08T03:22:37.990Z,70.21
2023-04-08T03:25:05.350Z,69.53
2023-04-08T03:27:32.490Z,69.46
2023-04-08T03:29:59.470Z,69.01
2023-04-08T03:32:26.760Z,68.38
2023-04-08T03:34:53.951Z,68.75
2023-04-08T03:37:21.108Z,69.49
2023-04-08T03:39:48.208Z,70.10
2023-04-08T03:42:15.312Z,70.33
2023-04-08T03:44:42.345Z,68.97
2023-04-08T03:47:09.342Z,68.13
2023-04-08T03:49:36.683Z,68.21
2023-04-08T03:52:03.725Z,69.13
2023-04-08T03:54:31.002Z,69.87
2023-04-08T03:56:58.003Z,69.88
2023-04-08T03:59:25.015Z,69.71
2023-04-08T04:01:53.761Z,70.38
2023-04-08T04:04:21.464Z,69.33
2023-04-08T04:06:48.853Z,69.51
2023-04-08T04:09:16.953Z,69.75
2023-04-08T04:11:44.076Z,69.41
2023-04-08T04:14:11.311Z,69.27
2023-04-08T04:16:38.458Z,69.14
2023-04-08T04:19:05.833Z,69.38
2023-04-08T04:21:33.534Z,69.20
2023-04-08T04:24:00.602Z,70.09
2023-04-08T04:26:27.566Z,70.39
2023-04-08T04:28:54.547Z,70.17
2023-04-08T04:31:23.348Z,69.84
2023-04-08T04:33:50.463Z,72.08
2023-04-08T04:36:17.584Z,73.43
2023-04-08T04:38:45.470Z,73.70
2023-04-08T04:41:12.995Z,73.00
2023-04-08T04:43:40.028Z,72.49
2023-04-08T04:46:09.103Z,71.60
2023-04-08T04:48:36.753Z,72.23
2023-04-08T04:51:03.877Z,72.27
2023-04-08T04:53:31.906Z,72.80
2023-04-08T04:56:01.347Z,73.13
2023-04-08T04:58:36.170Z,72.09
2023-04-08T05:01:03.049Z,72.08
2023-04-08T05:03:30.175Z,71.85
2023-04-08T05:05:57.090Z,72.45
2023-04-08T05:08:24.940Z,73.43
2023-04-08T05:10:55.795Z,73.48
2023-04-08T05:13:22.871Z,73.61
2023-04-08T05:15:50.163Z,73.84
2023-04-08T05:18:17.504Z,73.13
2023-04-08T05:20:44.574Z,71.51
2023-04-08T05:23:11.469Z,70.84
2023-04-08T05:25:38.509Z,71.46
2023-04-08T05:28:05.811Z,71.35
2023-04-08T05:30:32.993Z,69.49
2023-04-08T05:33:00.814Z,69.32
2023-04-08T05:35:28.892Z,71.55
2023-04-08T05:37:55.892Z,71.45
2023-04-08T05:40:22.950Z,71.91
2023-04-08T05:42:50.203Z,70.02
2023-04-08T05:45:17.437Z,70.11
2023-04-08T05:47:44.542Z,69.96
2023-04-08T05:50:11.699Z,69.39
2023-04-08T05:52:45.556Z,68.38
2023-04-08T05:55:14.443Z,68.38
2023-04-08T05:57:41.770Z,67.50
2023-04-08T06:00:10.851Z,68.44
2023-04-08T06:02:38.747Z,69.33
2023-04-08T06:05:06.741Z,68.77
2023-04-08T06:07:34.252Z,68.73
2023-04-08T06:10:01.546Z,65.93
2023-04-08T06:12:28.753Z,67.16
2023-04-08T06:14:56.620Z,67.31
2023-04-08T06:17:24.102Z,66.17
2023-04-08T06:19:51.275Z,66.72
2023-04-08T06:22:18.438Z,67.10
2023-04-08T06:24:47.860Z,68.64
2023-04-08T06:27:15.359Z,67.75
2023-04-08T06:29:43.086Z,66.73
2023-04-08T06:32:10.680Z,65.65
2023-04-08T06:34:38.249Z,66.36
2023-04-08T06:37:06.554Z,67.34
2023-04-08T06:39:34.030Z,67.26
2023-04-08T06:42:01.747Z,68.10
2023-04-08T06:44:47.551Z,67.52
2023-04-08T06:47:14.892Z,67.62
2023-04-08T06:49:41.876Z,67.27
2023-04-08T06:52:09.076Z,64.76
2023-04-08T06:54:36.343Z,64.75
2023-04-08T06:57:04.406Z,65.50
2023-04-08T06:59:31.356Z,65.86
2023-04-08T07:01:58.642Z,66.85
2023-04-08T07:04:26.289Z,70.15
2023-04-08T07:06:55.459Z,68.62
2023-04-08T07:09:22.556Z,65.31
2023-04-08T07:11:49.649Z,64.20
2023-04-08T07:14:16.730Z,64.06
2023-04-08T07:16:43.822Z,64.02
2023-04-08T07:19:10.986Z,65.90
2023-04-08T07:21:38.014Z,66.46
2023-04-08T07:24:05.113Z,66.08
2023-04-08T07:26:32.072Z,64.71
2023-04-08T07:28:59.237Z,64.88
2023-04-08T07:31:28.791Z,64.29
2023-04-08T07:33:56.082Z,64.95
2023-04-08T07:36:23.180Z,62.26
2023-04-08T07:38:50.776Z,62.08
2023-04-08T07:41:17.992Z,64.01
2023-04-08T07:43:45.045Z,62.40
2023-04-08T07:46:12.187Z,64.80
2023-04-08T07:48:39.280Z,60.00
2023-04-08T07:51:10.984Z,60.15
2023-04-08T07:53:39.688Z,63.59
2023-04-08T07:56:14.491Z,63.35
2023-04-08T07:58:41.870Z,60.43
2023-04-08T08:01:22.745Z,61.26
2023-04-08T08:03:52.095Z,63.23
2023-04-08T08:06:19.834Z,64.65
2023-04-08T08:08:47.015Z,62.46
2023-04-08T08:11:14.203Z,63.83
2023-04-08T08:13:41.118Z,62.82
2023-04-08T08:16:11.907Z,59.83
2023-04-08T08:18:42.800Z,60.21
2023-04-08T08:21:10.173Z,59.83
2023-04-08T08:23:37.980Z,60.75
2023-04-08T08:26:07.743Z,61.51
2023-04-08T08:28:34.729Z,61.17
2023-04-08T08:31:02.595Z,62.45
2023-04-08T08:33:29.806Z,61.72
2023-04-08T08:35:58.273Z,61.32
2023-04-08T08:38:27.356Z,62.11
2023-04-08T08:40:56.407Z,59.69
2023-04-08T08:43:24.858Z,60.55
2023-04-08T08:45:52.005Z,61.69
2023-04-08T08:48:19.268Z,62.07
2023-04-08T08:50:46.342Z,62.90
2023-04-08T08:53:13.690Z,62.09
2023-04-08T08:56:09.342Z,62.23
2023-04-08T08:58:35.920Z,61.53
2023-04-08T09:01:03.171Z,61.80
2023-04-08T09:03:30.535Z,59.63
2023-04-08T09:06:00.101Z,62.21
2023-04-08T09:08:35.174Z,62.45
2023-04-08T09:11:20.503Z,62.02
2023-04-08T09:13:48.238Z,63.48
2023-04-08T09:16:19.002Z,63.87
2023-04-08T09:18:51.031Z,62.63
2023-04-08T09:21:18.658Z,63.73
2023-04-08T09:23:48.234Z,62.69
2023-04-08T09:26:23.468Z,66.28
2023-04-08T09:29:25.045Z,63.80
2023-04-08T09:31:58.201Z,62.57
2023-04-08T09:34:30.873Z,61.18
2023-04-08T09:36:58.246Z,60.10
2023-04-08T09:39:25.516Z,59.31
2023-04-08T09:41:53.275Z,56.62
2023-04-08T09:44:21.941Z,57.11
2023-04-08T09:46:55.199Z,57.29
2023-04-08T09:49:38.462Z,58.01
2023-04-08T09:52:33.343Z,55.96
2023-04-08T09:55:04.671Z,55.16
2023-04-08T09:57:55.291Z,55.18
2023-04-08T10:00:33.159Z,55.15
2023-04-08T10:03:09.708Z,55.92
2023-04-08T10:05:43.551Z,56.43
2023-04-08T10:08:15.242Z,57.91
2023-04-08T10:10:47.975Z,57.24
2023-04-08T10:13:16.963Z,57.88
2023-04-08T10:15:45.894Z,58.63
2023-04-08T10:18:14.247Z,58.78
2023-04-08T10:20:42.726Z,57.86
2023-04-08T10:23:13.462Z,58.50
2023-04-08T10:25:48.612Z,59.44
2023-04-08T10:28:17.743Z,57.97
2023-04-08T10:30:48.710Z,58.09
2023-04-08T10:33:16.782Z,56.28
2023-04-08T10:36:15.122Z,60.93
2023-04-08T10:38:42.930Z,60.19
2023-04-08T10:41:21.819Z,59.53
2023-04-08T10:43:49.128Z,58.71
2023-04-08T10:46:17.436Z,59.13
2023-04-08T10:48:45.092Z,59.19
2023-04-08T10:51:12.275Z,57.97
2023-04-08T10:53:42.254Z,58.51
2023-04-08T10:56:13.266Z,59.97
2023-04-08T10:58:52.285Z,59.82
2023-04-08T11:01:20.055Z,60.44
2023-04-08T11:03:47.429Z,61.86
2023-04-08T11:06:14.964Z,60.82
2023-04-08T11:08:42.409Z,60.54
2023-04-08T11:11:11.093Z,61.60
2023-04-08T11:13:46.226Z,61.46
2023-04-08T11:16:20.955Z,61.61
2023-04-08T11:18:48.432Z,62.51
2023-04-08T11:21:16.877Z,62.90
2023-04-08T11:23:43.927Z,63.32
2023-04-08T11:26:11.569Z,63.32
2023-04-08T11:28:38.974Z,63.12
2023-04-08T11:31:06.394Z,62.12
2023-04-08T11:33:35.308Z,65.99
2023-04-08T11:36:05.776Z,66.12
2023-04-08T11:38:33.017Z,63.12
2023-04-08T11:41:00.632Z,64.89
2023-04-08T11:43:28.812Z,65.32
2023-04-08T11:45:56.034Z,65.71
2023-04-08T11:48:24.058Z,64.59
2023-04-08T11:51:09.195Z,62.88
2023-04-08T11:53:39.040Z,63.60
2023-04-08T11:56:23.527Z,64.41
2023-04-08T11:58:52.260Z,65.29
2023-04-08T12:01:19.880Z,65.28
2023-04-08T12:04:00.500Z,67.87
2023-04-08T12:06:49.024Z,67.76
2023-04-08T12:09:21.349Z,68.20
2023-04-08T12:11:48.865Z,65.43
2023-04-08T12:14:16.188Z,63.67
2023-04-08T12:16:43.598Z,65.16
2023-04-08T12:19:10.939Z,65.52
2023-04-08T12:21:38.452Z,64.58
2023-04-08T12:24:05.688Z,64.22
2023-04-08T12:26:33.289Z,65.52
2023-04-08T12:29:00.873Z,66.30
2023-04-08T12:31:28.715Z,65.56
2023-04-08T12:33:55.979Z,63.04
2023-04-08T12:36:23.440Z,64.02
2023-04-08T12:38:50.971Z,63.01
2023-04-08T12:41:18.687Z,63.46
2023-04-08T12:43:46.009Z,63.13
2023-04-08T12:46:13.701Z,64.16
2023-04-08T12:48:41.035Z,64.33
2023-04-08T12:51:10.590Z,62.90
2023-04-08T12:53:37.862Z,63.44
2023-04-08T12:56:05.786Z,64.07
2023-04-08T12:58:33.177Z,63.20
2023-04-08T13:01:00.630Z,62.39
2023-04-08T13:03:30.650Z,63.95
2023-04-08T13:05:59.363Z,66.10
2023-04-08T13:08:26.626Z,67.45
2023-04-08T13:10:55.585Z,67.06
2023-04-08T13:13:23.030Z,69.58
2023-04-08T13:15:51.151Z,69.38
2023-04-08T13:18:18.500Z,69.70
2023-04-08T13:20:52.520Z,70.53
2023-04-08T13:23:22.514Z,70.27
2023-04-08T13:44:20.229Z,64.42
2023-04-08T13:46:48.603Z,64.87
2023-04-08T14:34:30.871Z,66.55
2023-04-08T14:36:58.953Z,64.95
2023-04-08T14:39:29.968Z,64.98
2023-04-08T14:41:58.577Z,64.90
2023-04-08T14:44:26.511Z,66.67
2023-04-08T14:46:54.505Z,67.53
2023-04-08T14:49:22.804Z,68.23
2023-04-08T14:51:53.213Z,69.44
2023-04-08T14:54:21.913Z,70.13
2023-04-08T14:56:49.555Z,66.16
2023-04-08T14:59:17.326Z,67.18
2023-04-08T15:01:45.725Z,67.94
2023-04-08T15:04:14.924Z,65.20
2023-04-08T15:07:29.052Z,64.83
2023-04-08T15:09:57.036Z,64.49
2023-04-08T15:12:24.616Z,66.21
2023-04-08T15:14:52.038Z,67.78
2023-04-08T15:17:19.086Z,67.51
2023-04-08T15:19:47.105Z,66.49
2023-04-08T15:22:14.333Z,68.77
2023-04-08T15:24:42.725Z,68.62
2023-04-08T15:27:10.018Z,67.48
2023-04-08T15:29:37.177Z,66.57
2023-04-08T15:32:04.357Z,66.09
2023-04-08T15:34:31.333Z,66.24
2023-04-08T15:36:58.594Z,64.48
2023-04-08T15:39:26.200Z,66.94
2023-04-08T15:41:53.431Z,66.24
2023-04-08T15:44:20.816Z,66.42
2023-04-08T15:46:47.876Z,66.96
2023-04-08T15:49:14.985Z,67.21
2023-04-08T15:51:44.700Z,66.45
2023-04-08T15:54:12.050Z,66.57
2023-04-08T15:56:39.090Z,66.92
2023-04-08T15:59:06.275Z,67.02
2023-04-08T16:01:33.443Z,67.18
2023-04-08T16:04:01.188Z,68.60
2023-04-08T16:06:28.453Z,69.42
2023-04-08T16:08:56.940Z,70.09
2023-04-08T16:11:25.373Z,69.79
2023-04-08T16:13:52.893Z,70.29
2023-04-08T16:16:20.106Z,70.01
2023-04-08T16:18:47.634Z,69.84
2023-04-08T16:21:14.807Z,70.55
2023-04-08T16:23:42.163Z,70.88
2023-04-08T16:26:09.277Z,72.08
2023-04-08T16:28:39.086Z,73.36
2023-04-08T16:31:07.060Z,73.09
2023-04-08T16:33:34.108Z,73.11
2023-04-08T16:36:02.606Z,73.84
2023-04-08T16:38:29.589Z,72.82
2023-04-08T16:40:59.812Z,72.88
2023-04-08T16:43:28.259Z,72.72
2023-04-08T16:45:55.508Z,71.93
2023-04-08T16:48:23.386Z,72.38
2023-04-08T16:50:50.374Z,73.31
2023-04-08T16:53:17.361Z,73.77
2023-04-08T16:55:44.489Z,74.16
2023-04-08T16:58:11.620Z,74.37
2023-04-08T17:00:39.129Z,74.98
2023-04-08T17:03:06.276Z,75.01
2023-04-08T17:05:33.606Z,74.88
2023-04-08T17:08:01.395Z,74.71
2023-04-08T17:10:28.504Z,74.75
2023-04-08T17:12:55.522Z,75.03
2023-04-08T17:15:22.617Z,76.13
2023-04-08T17:17:49.849Z,76.23
2023-04-08T17:20:16.914Z,76.11
2023-04-08T17:22:44.030Z,74.94
2023-04-08T17:25:11.761Z,74.43
2023-04-08T17:27:38.747Z,72.51
2023-04-08T17:30:11.284Z,71.99
2023-04-08T17:32:38.874Z,72.72
2023-04-08T17:35:06.405Z,73.01
2023-04-08T17:37:33.458Z,72.51
2023-04-08T17:40:00.586Z,72.22
2023-04-08T17:42:27.564Z,72.49
2023-04-08T17:44:56.119Z,71.93
2023-04-08T17:47:23.120Z,72.63
2023-04-08T17:49:50.389Z,73.33
2023-04-08T17:52:20.494Z,74.02
2023-04-08T17:54:47.437Z,74.68
2023-04-08T17:57:14.420Z,75.20
2023-04-08T17:59:41.454Z,74.34
2023-04-08T18:02:08.516Z,74.50
2023-04-08T18:04:35.654Z,75.30
2023-04-08T18:07:05.406Z,75.68
2023-04-08T18:09:32.535Z,75.21
2023-04-08T18:11:59.566Z,74.70
2023-04-08T18:14:29.222Z,74.91
2023-04-08T18:16:56.315Z,75.21
2023-04-08T18:19:26.396Z,75.36
2023-04-08T18:21:53.583Z,75.15
2023-04-08T18:24:21.706Z,75.62
2023-04-08T18:27:01.470Z,75.53
2023-04-08T18:29:30.822Z,76.07
2023-04-08T18:31:57.787Z,75.94
2023-04-08T18:34:25.453Z,76.04
2023-04-08T18:36:52.423Z,75.50
2023-04-08T18:39:19.547Z,75.73
2023-04-08T18:41:46.563Z,75.52
2023-04-08T18:44:13.635Z,75.15
2023-04-08T18:46:40.748Z,74.97
2023-04-08T18:49:07.775Z,75.59
2023-04-08T18:51:34.864Z,74.98
2023-04-08T18:54:02.155Z,74.82
2023-04-08T18:56:29.125Z,74.14
2023-04-08T18:58:56.213Z,75.75
2023-04-08T19:01:23.167Z,75.85
2023-04-08T19:03:50.418Z,74.47
2023-04-08T19:06:17.976Z,75.18
2023-04-08T19:08:46.012Z,74.31
2023-04-08T19:11:14.935Z,73.45
2023-04-08T19:13:41.965Z,72.93
2023-04-08T19:16:09.037Z,72.68
2023-04-08T19:18:36.284Z,73.38
2023-04-08T19:21:03.750Z,74.67
2023-04-08T19:23:32.352Z,74.35
2023-04-08T19:25:59.601Z,74.21
2023-04-08T19:28:27.071Z,73.13
2023-04-08T19:31:00.600Z,72.67
2023-04-08T19:33:28.271Z,71.41
2023-04-08T19:35:56.287Z,71.25
2023-04-08T19:38:24.214Z,71.49
2023-04-08T19:40:51.359Z,71.65
2023-04-08T19:43:18.287Z,72.68
2023-04-08T19:45:45.253Z,73.11
2023-04-08T19:48:12.276Z,73.61
2023-04-08T19:50:39.780Z,73.79
2023-04-08T19:53:08.094Z,74.31
2023-04-08T19:55:37.510Z,74.10
2023-04-08T19:58:05.089Z,73.90
2023-04-08T20:00:32.691Z,72.86
2023-04-08T20:03:00.141Z,73.25
2023-04-08T20:05:27.213Z,73.70
2023-04-08T20:07:54.246Z,74.64
2023-04-08T20:10:21.362Z,74.90
2023-04-08T20:12:48.310Z,74.23
2023-04-08T20:15:24.158Z,74.27
2023-04-08T20:17:52.789Z,74.75
2023-04-08T20:20:20.252Z,75.13
2023-04-08T20:22:47.294Z,74.03
2023-04-08T20:25:14.372Z,73.18
2023-04-08T20:27:41.517Z,72.79
2023-04-08T20:30:09.503Z,73.33
2023-04-08T20:32:36.852Z,74.62
2023-04-08T20:35:04.574Z,75.75
2023-04-08T20:37:32.624Z,75.18
2023-04-08T20:39:59.585Z,74.35
2023-04-08T20:42:26.827Z,72.47
2023-04-08T20:44:53.934Z,72.88
2023-04-08T20:47:21.126Z,72.93
2023-04-08T20:49:48.353Z,72.97
2023-04-08T20:52:15.395Z,72.39
2023-04-08T20:54:42.500Z,72.32
2023-04-08T20:57:09.550Z,73.67
2023-04-08T20:59:37.070Z,73.94
2023-04-08T21:02:04.259Z,72.84
2023-04-08T21:04:31.947Z,73.03
2023-04-08T21:06:58.985Z,73.35
2023-04-08T21:09:26.177Z,73.81
2023-04-08T21:11:53.240Z,75.23
2023-04-08T21:14:20.484Z,74.51
2023-04-08T21:16:47.542Z,73.67
2023-04-08T21:19:14.662Z,73.86
2023-04-08T21:21:41.759Z,74.42
2023-04-08T21:24:09.996Z,74.95
2023-04-08T21:26:36.928Z,75.03
2023-04-08T21:29:04.028Z,75.63
2023-04-08T21:31:31.055Z,77.34
2023-04-08T21:33:58.096Z,77.35
2023-04-08T21:36:25.087Z,76.85
2023-04-08T21:38:52.173Z,76.28
2023-04-08T21:41:19.785Z,75.50
2023-04-08T21:43:47.030Z,75.67
2023-04-08T21:46:14.021Z,75.54
2023-04-08T21:48:40.984Z,74.18
2023-04-08T21:51:10.515Z,74.50
2023-04-08T21:53:38.585Z,75.44
2023-04-08T21:56:08.024Z,75.53
2023-04-08T21:58:38.114Z,75.81
2023-04-08T22:01:05.162Z,76.25
2023-04-08T22:03:32.306Z,75.45
2023-04-08T22:05:59.331Z,77.01
2023-04-08T22:08:26.342Z,76.69
2023-04-08T22:10:53.406Z,76.70
2023-04-08T22:13:21.355Z,77.06
2023-04-08T22:15:48.455Z,76.24
2023-04-08T22:18:15.717Z,75.51
2023-04-08T22:20:42.680Z,75.00
2023-04-08T22:23:09.665Z,74.97
2023-04-08T22:25:36.566Z,74.99
2023-04-08T22:28:03.478Z,74.76
2023-04-08T22:30:31.004Z,75.37
2023-04-08T22:32:58.251Z,75.78
2023-04-08T22:35:25.197Z,75.86
2023-04-08T22:37:52.153Z,76.20
2023-04-08T22:40:19.194Z,76.26
2023-04-08T22:42:46.106Z,76.40
2023-04-08T22:45:13.093Z,75.62
2023-04-08T22:47:40.074Z,75.33
2023-04-08T22:50:07.473Z,75.57
2023-04-08T22:52:34.492Z,76.27
2023-04-08T22:55:01.664Z,76.62
2023-04-08T22:57:28.641Z,77.62
2023-04-08T22:59:55.942Z,78.13
2023-04-08T23:02:23.063Z,77.18
2023-04-08T23:04:54.700Z,75.96
2023-04-08T23:07:21.850Z,76.66
2023-04-08T23:09:48.764Z,77.36
2023-04-08T23:12:15.992Z,76.01
2023-04-08T23:14:42.947Z,75.76
2023-04-08T23:17:10.170Z,76.27
2023-04-08T23:19:37.183Z,76.25
2023-04-08T23:22:04.155Z,76.65
2023-04-08T23:24:33.947Z,77.61
2023-04-08T23:27:01.990Z,77.45
2023-04-08T23:29:28.897Z,77.40
2023-04-08T23:31:55.794Z,77.38
2023-04-08T23:34:22.960Z,77.07
2023-04-08T23:36:50.058Z,77.05
2023-04-08T23:39:17.811Z,76.86
2023-04-08T23:41:44.691Z,76.79
2023-04-08T23:44:11.728Z,76.95
2023-04-08T23:46:38.782Z,76.33
2023-04-08T23:49:05.900Z,76.66
2023-04-08T23:51:36.454Z,76.19
2023-04-08T23:54:03.487Z,75.32
2023-04-08T23:56:30.869Z,74.66
2023-04-08T23:58:57.850Z,74.91
